createdAt,value
2023-08-17T00:00:22.727Z,5.43
2023-08-17T00:03:11.468Z,4.95
2023-08-17T00:05:39.822Z,5.88
2023-08-17T00:08:08.315Z,5.57
2023-08-17T00:10:40.041Z,5.68
2023-08-17T00:13:08.641Z,4.60
2023-08-17T00:15:36.985Z,5.53
2023-08-17T00:18:06.166Z,5.25
2023-08-17T00:20:34.501Z,4.78
2023-08-17T00:23:03.545Z,5.18
2023-08-17T00:25:32.016Z,4.80
2023-08-17T00:28:02.257Z,4.68
2023-08-17T00:30:30.797Z,5.25
2023-08-17T00:32:59.554Z,4.88
2023-08-17T00:35:27.950Z,4.68
2023-08-17T00:37:56.671Z,5.28
2023-08-17T00:40:24.922Z,4.80
2023-08-17T00:42:53.827Z,5.28
2023-08-17T00:45:24.608Z,4.60
2023-08-17T00:47:53.402Z,4.60
2023-08-17T00:50:21.986Z,4.45
2023-08-17T00:52:50.686Z,5.20
2023-08-17T00:55:19.206Z,5.22
2023-08-17T00:57:47.989Z,4.80
2023-08-17T01:00:18.754Z,5.00
2023-08-17T01:02:50.203Z,4.68
2023-08-17T01:05:18.766Z,4.70
2023-08-17T01:07:47.685Z,4.63
2023-08-17T01:10:16.765Z,5.00
2023-08-17T01:12:51.402Z,4.50
2023-08-17T01:15:22.441Z,4.90
2023-08-17T01:17:57.134Z,4.60
2023-08-17T01:20:25.858Z,4.55
2023-08-17T01:22:54.994Z,4.15
2023-08-17T01:25:25.109Z,4.70
2023-08-17T01:27:53.912Z,4.65
2023-08-17T01:30:22.405Z,4.47
2023-08-17T01:32:53.804Z,4.45
2023-08-17T01:40:22.062Z,4.38
2023-08-17T01:42:53.146Z,4.60
2023-08-17T01:45:21.420Z,5.40
2023-08-17T01:47:51.560Z,5.20
2023-08-17T01:50:20.073Z,5.45
2023-08-17T01:52:48.879Z,5.07
2023-08-17T01:55:17.266Z,5.30
2023-08-17T01:57:46.176Z,4.82
2023-08-17T02:00:17.372Z,5.18
2023-08-17T02:02:46.127Z,4.60
2023-08-17T02:05:14.479Z,4.25
2023-08-17T02:07:43.251Z,4.68
2023-08-17T02:10:12.000Z,4.68
2023-08-17T02:12:41.719Z,4.70
2023-08-17T02:15:11.193Z,4.60
2023-08-17T02:17:41.603Z,4.60
2023-08-17T02:20:11.620Z,4.45
2023-08-17T02:22:40.429Z,3.97
2023-08-17T02:25:10.408Z,4.63
2023-08-17T02:27:39.294Z,4.53
2023-08-17T02:30:09.235Z,4.63
2023-08-17T02:32:37.829Z,4.57
2023-08-17T02:35:08.696Z,4.20
2023-08-17T02:37:37.334Z,4.60
2023-08-17T02:40:06.039Z,5.00
2023-08-17T02:42:34.603Z,4.50
2023-08-17T02:45:02.944Z,5.07
2023-08-17T02:47:31.538Z,4.57
2023-08-17T02:49:59.801Z,5.30
2023-08-17T02:52:29.741Z,5.63
2023-08-17T02:54:58.041Z,5.32
2023-08-17T02:57:27.202Z,5.28
2023-08-17T02:59:55.592Z,5.47
2023-08-17T03:02:24.201Z,4.95
2023-08-17T03:04:52.504Z,5.22
2023-08-17T03:07:21.316Z,5.20
2023-08-17T03:09:50.942Z,5.13
2023-08-17T03:12:19.601Z,5.30
2023-08-17T03:14:48.519Z,5.22
2023-08-17T03:17:17.393Z,5.63
2023-08-17T03:19:45.695Z,5.43
2023-08-17T03:22:14.410Z,5.60
2023-08-17T03:24:42.651Z,5.88
2023-08-17T03:27:12.596Z,5.03
2023-08-17T03:29:40.844Z,6.00
2023-08-17T03:32:09.430Z,6.22
2023-08-17T03:34:37.741Z,5.88
2023-08-17T03:37:07.270Z,6.30
2023-08-17T03:39:35.626Z,6.18
2023-08-17T03:42:04.284Z,6.47
2023-08-17T03:44:34.025Z,6.25
2023-08-17T03:47:02.571Z,6.22
2023-08-17T03:49:30.846Z,6.22
2023-08-17T03:51:59.334Z,6.80
2023-08-17T03:54:27.786Z,6.53
2023-08-17T03:56:56.392Z,5.85
2023-08-17T03:59:24.701Z,5.80
2023-08-17T04:01:54.553Z,6.30
2023-08-17T04:04:23.269Z,7.03
2023-08-17T04:06:52.058Z,6.60
2023-08-17T04:09:20.338Z,6.30
2023-08-17T04:11:49.089Z,6.85
2023-08-17T04:14:19.830Z,6.22
2023-08-17T04:16:48.905Z,6.65
2023-08-17T04:19:18.589Z,6.43
2023-08-17T04:21:47.135Z,6.78
2023-08-17T04:24:15.463Z,6.65
2023-08-17T04:26:44.200Z,7.78
2023-08-17T04:29:12.381Z,6.30
2023-08-17T04:31:40.931Z,7.15
2023-08-17T04:34:09.212Z,7.32
2023-08-17T04:36:39.621Z,7.38
2023-08-17T04:39:07.912Z,7.43
2023-08-17T04:41:36.538Z,7.25
2023-08-17T04:44:05.421Z,7.10
2023-08-17T04:46:34.245Z,8.63
2023-08-17T04:49:02.540Z,9.02
2023-08-17T04:51:31.310Z,10.60
2023-08-17T04:54:01.216Z,12.00
2023-08-17T04:56:30.078Z,10.00
2023-08-17T04:58:58.420Z,9.05
2023-08-17T05:01:27.109Z,9.98
2023-08-17T05:03:55.922Z,8.27
2023-08-17T05:06:24.485Z,6.20
2023-08-17T05:08:52.742Z,6.25
2023-08-17T05:11:22.862Z,5.85
2023-08-17T05:13:51.249Z,5.63
2023-08-17T05:16:19.918Z,6.13
2023-08-17T05:18:48.378Z,6.50
2023-08-17T05:21:17.174Z,5.75
2023-08-17T05:23:45.560Z,7.18
2023-08-17T05:26:16.398Z,7.80
2023-08-17T05:28:46.356Z,8.63
2023-08-17T05:31:14.866Z,6.85
2023-08-17T05:33:43.228Z,7.53
2023-08-17T05:36:12.048Z,7.85
2023-08-17T05:38:40.453Z,8.02
2023-08-17T05:41:09.082Z,9.32
2023-08-17T05:43:37.424Z,8.30
2023-08-17T05:46:08.010Z,7.88
2023-08-17T05:48:36.748Z,8.63
2023-08-17T05:51:05.441Z,9.73
2023-08-17T05:53:33.800Z,10.75
2023-08-17T05:56:03.033Z,9.40
2023-08-17T05:58:31.708Z,10.20
2023-08-17T06:01:08.959Z,9.63
2023-08-17T06:03:39.187Z,9.52
2023-08-17T06:06:08.259Z,10.80
2023-08-17T06:08:36.554Z,10.45
2023-08-17T06:11:05.363Z,10.15
2023-08-17T06:13:33.637Z,9.95
2023-08-17T06:16:02.242Z,8.52
2023-08-17T06:18:32.054Z,8.90
2023-08-17T06:21:00.995Z,9.33
2023-08-17T06:23:29.365Z,8.55
2023-08-17T06:25:59.905Z,7.90
2023-08-17T06:28:29.448Z,10.68
2023-08-17T06:30:58.660Z,10.25
2023-08-17T06:33:27.132Z,10.07
2023-08-17T06:35:57.339Z,9.65
2023-08-17T06:38:25.763Z,8.95
2023-08-17T06:40:54.494Z,8.38
2023-08-17T06:43:22.928Z,7.03
2023-08-17T06:45:51.753Z,6.68
2023-08-17T06:48:20.137Z,7.32
2023-08-17T06:50:49.413Z,9.57
2023-08-17T06:53:19.362Z,8.90
2023-08-17T06:55:48.548Z,9.98
2023-08-17T06:58:16.981Z,8.82
2023-08-17T07:00:46.688Z,8.50
2023-08-17T07:03:15.000Z,8.82
2023-08-17T07:05:43.863Z,7.68
2023-08-17T07:08:12.224Z,8.40
2023-08-17T07:10:42.370Z,6.50
2023-08-17T07:13:10.851Z,5.82
2023-08-17T07:15:39.461Z,6.13
2023-08-17T07:18:07.960Z,9.02
2023-08-17T07:20:36.547Z,11.13
2023-08-17T07:23:05.241Z,12.02
2023-08-17T07:25:34.350Z,11.48
2023-08-17T07:28:04.400Z,11.27
2023-08-17T07:30:33.133Z,10.60
2023-08-17T07:33:01.675Z,9.40
2023-08-17T07:35:30.450Z,9.50
2023-08-17T07:38:08.264Z,8.63
2023-08-17T07:40:37.969Z,9.27
2023-08-17T07:43:08.070Z,8.20
2023-08-17T07:45:36.811Z,10.63
2023-08-17T07:48:05.827Z,9.90
2023-08-17T07:50:34.729Z,7.30
2023-08-17T07:53:03.235Z,10.40
2023-08-17T07:55:31.805Z,8.80
2023-08-17T07:58:00.245Z,9.93
2023-08-17T08:00:30.397Z,9.77
2023-08-17T08:02:58.880Z,8.48
2023-08-17T08:05:28.482Z,7.65
2023-08-17T08:07:57.196Z,8.10
2023-08-17T08:10:26.108Z,6.38
2023-08-17T08:12:54.683Z,6.07
2023-08-17T08:15:23.752Z,7.65
2023-08-17T08:17:53.623Z,6.30
2023-08-17T08:20:23.016Z,6.13
2023-08-17T08:22:51.374Z,6.07
2023-08-17T08:25:20.063Z,6.32
2023-08-17T08:27:48.750Z,6.95
2023-08-17T08:30:18.572Z,6.15
2023-08-17T08:32:47.093Z,6.03
2023-08-17T08:35:17.393Z,6.63
2023-08-17T08:37:45.800Z,6.18
2023-08-17T08:40:15.343Z,7.18
2023-08-17T08:42:43.882Z,5.88
2023-08-17T08:45:12.857Z,5.70
2023-08-17T08:47:44.230Z,7.22
2023-08-17T08:50:14.285Z,5.53
2023-08-17T08:52:46.736Z,5.60
2023-08-17T08:55:18.340Z,5.03
2023-08-17T08:57:51.736Z,5.40
2023-08-17T09:00:20.829Z,5.57
2023-08-17T09:02:49.609Z,5.05
2023-08-17T09:05:19.111Z,5.75
2023-08-17T09:10:18.454Z,5.78
2023-08-17T09:12:49.112Z,5.20
2023-08-17T09:15:18.619Z,4.80
2023-08-17T09:17:49.036Z,4.82
2023-08-17T09:20:39.045Z,5.70
2023-08-17T09:23:12.622Z,5.25
2023-08-17T09:25:41.411Z,5.38
2023-08-17T09:28:13.374Z,5.88
2023-08-17T09:30:52.847Z,5.35
2023-08-17T09:33:22.008Z,5.50
2023-08-17T09:35:51.379Z,5.28
2023-08-17T09:38:21.388Z,6.35
2023-08-17T09:40:50.297Z,5.10
2023-08-17T09:43:19.165Z,5.18
2023-08-17T09:45:51.020Z,5.30
2023-08-17T09:48:20.193Z,4.90
2023-08-17T09:50:50.175Z,5.18
2023-08-17T09:53:20.661Z,5.28
2023-08-17T09:55:49.500Z,5.57
2023-08-17T09:58:17.706Z,5.17
2023-08-17T10:00:51.479Z,5.38
2023-08-17T10:03:21.805Z,5.32
2023-08-17T10:05:55.859Z,4.72
2023-08-17T10:08:25.900Z,5.22
2023-08-17T10:10:56.756Z,4.63
2023-08-17T10:13:30.761Z,4.53
2023-08-17T10:16:04.896Z,5.78
2023-08-17T10:18:38.651Z,5.28
2023-08-17T10:21:09.006Z,5.40
2023-08-17T10:23:42.778Z,5.50
2023-08-17T10:26:13.037Z,5.45
2023-08-17T10:28:41.936Z,5.15
2023-08-17T10:31:11.896Z,5.60
2023-08-17T10:33:42.814Z,6.03
2023-08-17T10:36:11.434Z,6.28
2023-08-17T10:38:41.208Z,5.53
2023-08-17T10:41:10.762Z,5.55
2023-08-17T10:43:57.029Z,5.05
2023-08-17T10:46:35.353Z,4.75
2023-08-17T10:49:06.805Z,4.60
2023-08-17T10:51:35.602Z,4.63
2023-08-17T10:54:06.019Z,4.55
2023-08-17T10:56:35.227Z,4.60
2023-08-17T10:59:04.271Z,5.35
2023-08-17T11:01:39.464Z,4.82
2023-08-17T11:04:15.411Z,4.78
2023-08-17T11:06:44.929Z,5.03
2023-08-17T11:09:14.668Z,5.72
2023-08-17T11:11:43.245Z,5.80
2023-08-17T11:14:11.604Z,5.93
2023-08-17T11:16:40.268Z,5.40
2023-08-17T11:19:13.486Z,5.68
2023-08-17T11:21:42.435Z,5.30
2023-08-17T11:24:12.319Z,7.07
2023-08-17T11:26:42.684Z,6.32
2023-08-17T11:29:12.542Z,7.05
2023-08-17T11:31:42.945Z,7.72
2023-08-17T11:34:11.355Z,7.90
2023-08-17T11:36:40.524Z,6.25
2023-08-17T11:39:10.972Z,6.78
2023-08-17T11:44:09.221Z,5.38
2023-08-17T11:46:38.575Z,4.25
2023-08-17T11:49:07.719Z,3.92
2023-08-17T11:51:36.513Z,3.80
2023-08-17T11:54:08.650Z,4.50
2023-08-17T11:56:37.356Z,4.35
2023-08-17T11:59:15.221Z,4.32
2023-08-17T12:01:43.864Z,4.53
2023-08-17T12:04:12.512Z,4.07
2023-08-17T12:06:45.849Z,4.43
2023-08-17T12:09:15.232Z,4.80
2023-08-17T12:11:43.876Z,4.95
2023-08-17T12:14:14.342Z,5.60
2023-08-17T12:16:49.929Z,4.85
2023-08-17T12:19:18.261Z,4.65
2023-08-17T12:21:48.224Z,5.30
2023-08-17T12:24:17.554Z,4.53
2023-08-17T12:26:47.324Z,3.92
2023-08-17T12:29:17.197Z,4.65
2023-08-17T12:31:47.040Z,4.00
2023-08-17T12:34:15.405Z,3.55
2023-08-17T12:36:45.642Z,4.05
2023-08-17T12:39:13.999Z,3.25
2023-08-17T12:41:42.684Z,3.88
2023-08-17T12:44:17.656Z,4.00
2023-08-17T12:46:48.003Z,3.45
2023-08-17T12:49:16.696Z,3.63
2023-08-17T12:51:46.275Z,3.65
2023-08-17T12:54:14.939Z,3.78
2023-08-17T12:56:43.688Z,3.83
2023-08-17T12:59:12.112Z,3.17
2023-08-17T13:01:40.663Z,3.08
2023-08-17T13:04:10.596Z,3.47
2023-08-17T13:06:49.240Z,3.10
2023-08-17T13:09:20.116Z,3.35
2023-08-17T13:11:48.822Z,3.22
2023-08-17T13:14:17.233Z,3.00
2023-08-17T13:16:46.016Z,3.13
2023-08-17T13:19:15.840Z,3.30
2023-08-17T13:21:44.495Z,3.70
2023-08-17T13:24:12.867Z,3.45
2023-08-17T13:26:42.616Z,3.10
2023-08-17T13:29:12.142Z,3.22
2023-08-17T13:31:40.972Z,2.88
2023-08-17T13:34:09.196Z,3.42
2023-08-17T13:36:39.296Z,3.55
2023-08-17T13:39:08.012Z,3.58
2023-08-17T13:41:36.709Z,3.33
2023-08-17T13:44:05.506Z,4.10
2023-08-17T13:46:34.223Z,3.42
2023-08-17T13:49:02.509Z,3.80
2023-08-17T13:51:31.174Z,3.00
2023-08-17T13:54:00.864Z,3.17
2023-08-17T13:56:30.096Z,3.20
2023-08-17T13:58:58.424Z,2.78
2023-08-17T14:01:27.400Z,3.33
2023-08-17T14:03:55.992Z,3.10
2023-08-17T14:06:24.746Z,3.60
2023-08-17T14:08:54.303Z,2.65
2023-08-17T14:11:25.280Z,2.60
2023-08-17T14:13:53.610Z,2.35
2023-08-17T14:16:22.260Z,2.50
2023-08-17T14:18:50.862Z,2.70
2023-08-17T14:21:19.410Z,2.45
2023-08-17T14:23:47.972Z,2.00
2023-08-17T14:26:16.505Z,2.60
2023-08-17T14:28:46.134Z,2.45
2023-08-17T14:31:17.185Z,2.15
2023-08-17T14:36:19.621Z,2.80
2023-08-17T14:38:48.345Z,3.45
2023-08-17T14:41:17.044Z,2.60
2023-08-17T14:43:46.837Z,3.90
2023-08-17T14:46:15.986Z,3.07
2023-08-17T14:48:44.346Z,3.10
2023-08-17T14:51:12.908Z,2.90
2023-08-17T14:53:41.348Z,3.78
2023-08-17T14:56:09.904Z,3.70
2023-08-17T14:58:38.473Z,2.97
2023-08-17T15:01:08.937Z,3.70
2023-08-17T15:03:37.266Z,3.80
2023-08-17T15:06:06.274Z,4.40
2023-08-17T15:08:34.781Z,4.43
2023-08-17T15:11:04.426Z,4.13
2023-08-17T15:13:34.085Z,3.78
2023-08-17T15:16:02.826Z,4.63
2023-08-17T15:18:32.635Z,4.00
2023-08-17T15:21:01.114Z,2.97
2023-08-17T15:23:29.403Z,3.00
2023-08-17T15:25:58.007Z,3.08
2023-08-17T15:28:26.291Z,3.10
2023-08-17T15:31:03.409Z,3.95
2023-08-17T15:33:32.998Z,3.42
2023-08-17T15:36:02.237Z,4.03
2023-08-17T15:38:30.593Z,3.33
2023-08-17T15:40:59.171Z,3.08
2023-08-17T15:43:27.547Z,3.03
2023-08-17T15:45:56.156Z,3.10
2023-08-17T15:48:24.503Z,3.47
2023-08-17T15:50:54.591Z,3.50
2023-08-17T15:53:22.980Z,3.53
2023-08-17T15:55:51.700Z,3.88
2023-08-17T15:58:20.186Z,3.70
2023-08-17T16:00:48.856Z,4.10
2023-08-17T16:03:17.304Z,3.55
2023-08-17T16:05:46.033Z,3.90
2023-08-17T16:08:15.703Z,4.40
2023-08-17T16:10:44.367Z,4.72
2023-08-17T16:13:12.677Z,4.97
2023-08-17T16:15:41.268Z,3.90
2023-08-17T16:18:09.654Z,4.40
2023-08-17T16:20:38.331Z,3.47
2023-08-17T16:23:06.577Z,3.30
2023-08-17T16:25:36.445Z,3.92
2023-08-17T16:28:06.564Z,3.53
2023-08-17T16:30:37.532Z,3.15
2023-08-17T16:33:06.160Z,2.95
2023-08-17T16:35:36.682Z,2.90
2023-08-17T16:38:05.238Z,3.40
2023-08-17T16:40:38.876Z,3.58
2023-08-17T16:43:08.926Z,3.42
2023-08-17T16:45:37.573Z,3.58
2023-08-17T16:48:06.835Z,3.35
2023-08-17T16:50:35.848Z,3.15
2023-08-17T16:53:04.053Z,3.97
2023-08-17T16:55:32.800Z,3.47
2023-08-17T16:58:01.063Z,3.40
2023-08-17T17:00:31.472Z,3.47
2023-08-17T17:02:59.707Z,3.60
2023-08-17T17:05:28.434Z,3.67
2023-08-17T17:07:58.657Z,3.95
2023-08-17T17:10:27.448Z,3.70
2023-08-17T17:12:55.852Z,2.90
2023-08-17T17:15:24.586Z,3.28
2023-08-17T17:17:54.192Z,3.10
2023-08-17T17:20:23.055Z,3.10
2023-08-17T17:22:51.704Z,3.60
2023-08-17T17:25:20.186Z,2.78
2023-08-17T17:27:48.432Z,2.85
2023-08-17T17:30:17.095Z,2.80
2023-08-17T17:32:45.438Z,3.40
2023-08-17T17:35:15.540Z,3.78
2023-08-17T17:37:43.784Z,3.40
2023-08-17T17:40:12.936Z,2.83
2023-08-17T17:42:41.224Z,3.10
2023-08-17T17:45:10.221Z,3.45
2023-08-17T17:47:38.466Z,3.35
2023-08-17T17:50:08.242Z,3.42
2023-08-17T17:52:37.968Z,3.35
2023-08-17T17:55:07.660Z,3.10
2023-08-17T17:57:35.943Z,3.30
2023-08-17T18:00:05.936Z,3.38
2023-08-17T18:02:34.869Z,2.85
2023-08-17T18:05:03.586Z,3.40
2023-08-17T18:07:32.280Z,3.40
2023-08-17T18:10:04.402Z,3.25
2023-08-17T18:12:33.732Z,3.70
2023-08-17T18:15:02.447Z,3.28
2023-08-17T18:17:30.928Z,3.13
2023-08-17T18:19:59.918Z,4.50
2023-08-17T18:22:28.234Z,3.70
2023-08-17T18:24:56.791Z,3.60
2023-08-17T18:27:26.745Z,2.88
2023-08-17T18:29:55.362Z,3.47
2023-08-17T18:32:23.895Z,3.30
2023-08-17T18:34:52.683Z,2.97
2023-08-17T18:37:21.131Z,3.22
2023-08-17T18:39:49.828Z,3.33
2023-08-17T18:42:18.064Z,3.72
2023-08-17T18:44:48.060Z,3.72
2023-08-17T18:47:16.390Z,3.33
2023-08-17T18:49:44.944Z,3.85
2023-08-17T18:52:13.244Z,3.25
2023-08-17T18:54:41.903Z,3.72
2023-08-17T18:57:10.087Z,3.45
2023-08-17T18:59:38.741Z,3.10
2023-08-17T19:02:08.519Z,2.92
2023-08-17T19:04:37.013Z,3.00
2023-08-17T19:07:05.949Z,3.20
2023-08-17T19:09:34.499Z,3.35
2023-08-17T19:12:02.752Z,3.33
2023-08-17T19:14:31.298Z,4.07
2023-08-17T19:17:00.187Z,3.53
2023-08-17T19:19:30.223Z,3.50
2023-08-17T19:21:58.545Z,4.70
2023-08-17T19:24:27.205Z,14.90
2023-08-17T19:26:55.727Z,5.97
2023-08-17T19:29:24.688Z,5.00
2023-08-17T19:31:53.446Z,5.13
2023-08-17T19:34:21.967Z,4.32
2023-08-17T19:36:51.613Z,3.78
2023-08-17T19:39:20.781Z,3.65
2023-08-17T19:41:49.379Z,3.25
2023-08-17T19:44:17.878Z,3.40
2023-08-17T19:46:46.037Z,4.05
2023-08-17T19:49:14.724Z,4.10
2023-08-17T19:51:44.351Z,4.38
2023-08-17T19:54:15.299Z,4.15
2023-08-17T19:56:43.567Z,4.57
2023-08-17T19:59:12.254Z,4.60
2023-08-17T20:01:40.493Z,4.63
2023-08-17T20:04:12.067Z,4.40
2023-08-17T20:06:40.873Z,4.50
2023-08-17T20:09:09.749Z,4.57
2023-08-17T20:11:39.606Z,4.30
2023-08-17T20:14:08.152Z,4.07
2023-08-17T20:16:36.563Z,4.63
2023-08-17T20:19:05.371Z,4.88
2023-08-17T20:21:34.318Z,6.20
2023-08-17T20:24:02.919Z,6.53
2023-08-17T20:26:31.274Z,6.07
2023-08-17T20:29:01.080Z,6.25
2023-08-17T20:31:29.564Z,4.95
2023-08-17T20:33:58.147Z,5.15
2023-08-17T20:36:27.233Z,5.00
2023-08-17T20:38:55.942Z,4.72
2023-08-17T20:41:24.249Z,4.03
2023-08-17T20:43:53.963Z,3.83
2023-08-17T20:46:23.909Z,3.83
2023-08-17T20:48:52.519Z,3.45
2023-08-17T20:51:20.686Z,3.17
2023-08-17T20:53:49.348Z,3.67
2023-08-17T20:56:17.861Z,3.25
2023-08-17T20:58:46.456Z,3.00
2023-08-17T21:01:17.459Z,3.05
2023-08-17T21:03:48.220Z,3.28
2023-08-17T21:06:16.643Z,2.75
2023-08-17T21:08:45.370Z,2.30
2023-08-17T21:11:14.180Z,2.13
2023-08-17T21:13:42.813Z,2.65
2023-08-17T21:16:11.537Z,3.70
2023-08-17T21:18:40.362Z,4.80
2023-08-17T21:21:10.048Z,5.03
2023-08-17T21:23:38.614Z,3.72
2023-08-17T21:26:06.844Z,4.63
2023-08-17T21:28:35.252Z,4.28
2023-08-17T21:31:04.464Z,4.10
2023-08-17T21:33:33.127Z,3.63
2023-08-17T21:36:01.683Z,4.38
2023-08-17T21:38:31.670Z,4.18
2023-08-17T21:41:00.228Z,3.80
2023-08-17T21:43:29.361Z,3.35
2023-08-17T21:45:58.274Z,3.83
2023-08-17T21:48:26.834Z,3.15
2023-08-17T21:50:55.353Z,3.47
2023-08-17T21:53:24.124Z,4.00
2023-08-17T21:55:53.996Z,3.63
2023-08-17T21:58:22.869Z,4.17
2023-08-17T22:00:51.357Z,3.70
2023-08-17T22:03:20.035Z,3.80
2023-08-17T22:05:48.850Z,3.97
2023-08-17T22:08:17.706Z,4.05
2023-08-17T22:10:46.556Z,3.50
2023-08-17T22:13:16.484Z,3.78
2023-08-17T22:15:44.881Z,3.55
2023-08-17T22:18:15.551Z,3.95
2023-08-17T22:20:44.468Z,3.28
2023-08-17T22:23:13.276Z,3.63
2023-08-17T22:25:41.537Z,3.45
2023-08-17T22:28:10.056Z,3.95
2023-08-17T22:30:39.694Z,3.75
2023-08-17T22:33:08.438Z,3.67
2023-08-17T22:35:36.665Z,4.00
2023-08-17T22:38:05.456Z,3.97
2023-08-17T22:40:33.725Z,3.60
2023-08-17T22:43:02.433Z,3.90
2023-08-17T22:45:30.732Z,3.85
2023-08-17T22:48:00.988Z,4.40
2023-08-17T22:50:29.256Z,4.40
2023-08-17T22:52:58.366Z,3.72
2023-08-17T22:55:26.687Z,4.70
2023-08-17T22:57:55.224Z,4.35
2023-08-17T23:00:23.573Z,4.32
2023-08-17T23:02:52.072Z,4.97
2023-08-17T23:05:21.847Z,4.15
2023-08-17T23:07:50.347Z,4.55
2023-08-17T23:10:18.852Z,4.05
2023-08-17T23:12:47.574Z,4.13
2023-08-17T23:15:15.841Z,4.18
2023-08-17T23:17:44.514Z,3.53
2023-08-17T23:20:13.935Z,4.90
2023-08-17T23:22:44.015Z,4.25
2023-08-17T23:25:12.515Z,3.95
2023-08-17T23:27:41.304Z,4.45
2023-08-17T23:30:11.329Z,4.57
2023-08-17T23:32:39.923Z,4.30
2023-08-17T23:35:09.519Z,2.75
2023-08-17T23:37:38.097Z,3.65
2023-08-17T23:40:09.458Z,3.70
2023-08-17T23:42:37.985Z,3.38
2023-08-17T23:45:08.551Z,3.53
2023-08-17T23:47:37.297Z,3.10
2023-08-17T23:50:06.580Z,2.60
2023-08-17T23:52:35.117Z,3.33
2023-08-17T23:55:04.618Z,4.82
2023-08-17T23:57:35.123Z,5.53
